sensor_id;sensor_type;location;lat;lon;timestamp;P1;durP1;ratioP1;P2;durP2;ratioP2
23590;SDS011;11973;52.098;7.582;2023-12-14T00:02:20;9.55;;;8.65;;
23590;SDS011;11973;52.098;7.582;2023-12-14T00:04:46;11.68;;;10.50;;
23590;SDS011;11973;52.098;7.582;2023-12-14T00:07:12;10.90;;;9.90;;
23590;SDS011;11973;52.098;7.582;2023-12-14T00:09:40;10.65;;;9.65;;
23590;SDS011;11973;52.098;7.582;2023-12-14T00:12:06;12.73;;;11.18;;
23590;SDS011;11973;52.098;7.582;2023-12-14T00:14:31;12.25;;;11.00;;
23590;SDS011;11973;52.098;7.582;2023-12-14T00:16:57;12.30;;;11.05;;
23590;SDS011;11973;52.098;7.582;2023-12-14T00:19:24;12.30;;;11.07;;
23590;SDS011;11973;52.098;7.582;2023-12-14T00:21:50;13.13;;;11.73;;
23590;SDS011;11973;52.098;7.582;2023-12-14T00:24:15;14.07;;;11.32;;
23590;SDS011;11973;52.098;7.582;2023-12-14T00:26:41;12.63;;;11.30;;
23590;SDS011;11973;52.098;7.582;2023-12-14T00:29:07;13.75;;;12.30;;
23590;SDS011;11973;52.098;7.582;2023-12-14T05:16:37;14.93;;;13.43;;
23590;SDS011;11973;52.098;7.582;2023-12-14T05:19:03;14.63;;;13.35;;
23590;SDS011;11973;52.098;7.582;2023-12-14T05:21:28;14.40;;;13.20;;
23590;SDS011;11973;52.098;7.582;2023-12-14T05:23:54;15.07;;;13.68;;
23590;SDS011;11973;52.098;7.582;2023-12-14T05:26:20;14.27;;;13.07;;
23590;SDS011;11973;52.098;7.582;2023-12-14T05:28:46;15.32;;;13.82;;
23590;SDS011;11973;52.098;7.582;2023-12-14T05:31:11;15.07;;;13.68;;
23590;SDS011;11973;52.098;7.582;2023-12-14T05:33:38;15.40;;;13.90;;
23590;SDS011;11973;52.098;7.582;2023-12-14T05:36:04;15.60;;;14.10;;
23590;SDS011;11973;52.098;7.582;2023-12-14T05:38:34;17.65;;;15.95;;
23590;SDS011;11973;52.098;7.582;2023-12-14T05:41:00;17.17;;;15.40;;
23590;SDS011;11973;52.098;7.582;2023-12-14T05:43:26;16.65;;;15.00;;
23590;SDS011;11973;52.098;7.582;2023-12-14T05:45:51;17.88;;;16.20;;
23590;SDS011;11973;52.098;7.582;2023-12-14T05:48:17;17.70;;;15.90;;
23590;SDS011;11973;52.098;7.582;2023-12-14T05:50:43;17.80;;;16.00;;
23590;SDS011;11973;52.098;7.582;2023-12-14T05:53:08;18.45;;;16.55;;
23590;SDS011;11973;52.098;7.582;2023-12-14T05:55:34;18.27;;;16.48;;
23590;SDS011;11973;52.098;7.582;2023-12-14T05:58:00;16.98;;;15.32;;
23590;SDS011;11973;52.098;7.582;2023-12-14T06:00:26;18.55;;;16.65;;
23590;SDS011;11973;52.098;7.582;2023-12-14T06:02:51;17.77;;;15.98;;
23590;SDS011;11973;52.098;7.582;2023-12-14T06:05:17;17.83;;;15.93;;
23590;SDS011;11973;52.098;7.582;2023-12-14T06:07:43;19.90;;;17.10;;
23590;SDS011;11973;52.098;7.582;2023-12-14T06:10:09;18.45;;;16.38;;
23590;SDS011;11973;52.098;7.582;2023-12-14T06:12:35;18.60;;;16.33;;
23590;SDS011;11973;52.098;7.582;2023-12-14T06:15:01;20.00;;;17.58;;
23590;SDS011;11973;52.098;7.582;2023-12-14T06:17:27;23.33;;;17.77;;
23590;SDS011;11973;52.098;7.582;2023-12-14T06:19:53;23.65;;;19.27;;
23590;SDS011;11973;52.098;7.582;2023-12-14T06:22:18;24.55;;;18.70;;
23590;SDS011;11973;52.098;7.582;2023-12-14T06:24:44;22.67;;;18.77;;
23590;SDS011;11973;52.098;7.582;2023-12-14T06:27:10;23.17;;;18.52;;
23590;SDS011;11973;52.098;7.582;2023-12-14T06:29:36;24.00;;;19.63;;
23590;SDS011;11973;52.098;7.582;2023-12-14T06:32:02;23.05;;;19.13;;
23590;SDS011;11973;52.098;7.582;2023-12-14T06:34:28;26.42;;;20.15;;
23590;SDS011;11973;52.098;7.582;2023-12-14T06:36:54;21.40;;;18.58;;
23590;SDS011;11973;52.098;7.582;2023-12-14T06:39:20;20.67;;;18.40;;
23590;SDS011;11973;52.098;7.582;2023-12-14T06:41:46;21.83;;;18.58;;
23590;SDS011;11973;52.098;7.582;2023-12-14T06:44:11;20.98;;;17.83;;
23590;SDS011;11973;52.098;7.582;2023-12-14T06:46:37;19.73;;;17.17;;
23590;SDS011;11973;52.098;7.582;2023-12-14T06:49:03;19.17;;;17.17;;
23590;SDS011;11973;52.098;7.582;2023-12-14T06:51:28;20.83;;;18.05;;
23590;SDS011;11973;52.098;7.582;2023-12-14T06:53:54;19.17;;;17.15;;
23590;SDS011;11973;52.098;7.582;2023-12-14T06:56:20;19.35;;;16.95;;
23590;SDS011;11973;52.098;7.582;2023-12-14T06:58:46;19.27;;;17.27;;
23590;SDS011;11973;52.098;7.582;2023-12-14T07:01:14;18.73;;;16.80;;
23590;SDS011;11973;52.098;7.582;2023-12-14T07:03:41;18.48;;;16.58;;
23590;SDS011;11973;52.098;7.582;2023-12-14T07:06:14;17.60;;;15.75;;
23590;SDS011;11973;52.098;7.582;2023-12-14T07:08:40;17.00;;;15.43;;
23590;SDS011;11973;52.098;7.582;2023-12-14T07:11:10;16.85;;;15.05;;
23590;SDS011;11973;52.098;7.582;2023-12-14T07:13:36;16.63;;;15.02;;
23590;SDS011;11973;52.098;7.582;2023-12-14T07:16:05;15.65;;;14.15;;
23590;SDS011;11973;52.098;7.582;2023-12-14T07:18:41;15.65;;;14.15;;
23590;SDS011;11973;52.098;7.582;2023-12-14T07:21:07;15.50;;;14.00;;
23590;SDS011;11973;52.098;7.582;2023-12-14T07:23:33;14.65;;;13.40;;
23590;SDS011;11973;52.098;7.582;2023-12-14T07:26:00;15.20;;;13.90;;
23590;SDS011;11973;52.098;7.582;2023-12-14T07:28:26;15.77;;;14.38;;
23590;SDS011;11973;52.098;7.582;2023-12-14T07:30:52;16.30;;;14.85;;
23590;SDS011;11973;52.098;7.582;2023-12-14T07:33:18;16.58;;;15.07;;
23590;SDS011;11973;52.098;7.582;2023-12-14T07:35:44;16.02;;;14.65;;
23590;SDS011;11973;52.098;7.582;2023-12-14T07:38:10;16.63;;;15.00;;
23590;SDS011;11973;52.098;7.582;2023-12-14T07:40:36;15.55;;;14.15;;
23590;SDS011;11973;52.098;7.582;2023-12-14T07:43:04;16.48;;;14.88;;
23590;SDS011;11973;52.098;7.582;2023-12-14T07:45:29;16.70;;;15.10;;
23590;SDS011;11973;52.098;7.582;2023-12-14T07:47:55;16.90;;;15.35;;
23590;SDS011;11973;52.098;7.582;2023-12-14T07:50:21;17.27;;;15.68;;
23590;SDS011;11973;52.098;7.582;2023-12-14T07:52:47;16.88;;;15.27;;
23590;SDS011;11973;52.098;7.582;2023-12-14T07:55:12;16.65;;;15.05;;
23590;SDS011;11973;52.098;7.582;2023-12-14T07:57:39;16.05;;;14.65;;
23590;SDS011;11973;52.098;7.582;2023-12-14T08:00:05;16.67;;;15.07;;
23590;SDS011;11973;52.098;7.582;2023-12-14T08:02:33;17.75;;;16.15;;
23590;SDS011;11973;52.098;7.582;2023-12-14T08:04:59;16.77;;;15.15;;
23590;SDS011;11973;52.098;7.582;2023-12-14T08:07:25;16.85;;;15.25;;
23590;SDS011;11973;52.098;7.582;2023-12-14T08:09:57;16.38;;;14.90;;
23590;SDS011;11973;52.098;7.582;2023-12-14T08:12:23;18.08;;;16.27;;
23590;SDS011;11973;52.098;7.582;2023-12-14T08:14:49;17.13;;;15.52;;
23590;SDS011;11973;52.098;7.582;2023-12-14T08:17:15;17.73;;;16.05;;
23590;SDS011;11973;52.098;7.582;2023-12-14T08:19:41;17.73;;;15.93;;
23590;SDS011;11973;52.098;7.582;2023-12-14T08:22:08;16.70;;;15.18;;
23590;SDS011;11973;52.098;7.582;2023-12-14T08:24:39;16.85;;;15.35;;
23590;SDS011;11973;52.098;7.582;2023-12-14T08:27:05;17.95;;;16.25;;
23590;SDS011;11973;52.098;7.582;2023-12-14T08:29:31;17.48;;;15.93;;
23590;SDS011;11973;52.098;7.582;2023-12-14T08:31:56;16.92;;;15.35;;
23590;SDS011;11973;52.098;7.582;2023-12-14T08:34:27;17.33;;;15.75;;
23590;SDS011;11973;52.098;7.582;2023-12-14T08:36:53;17.63;;;15.93;;
23590;SDS011;11973;52.098;7.582;2023-12-14T08:39:19;17.17;;;15.68;;
23590;SDS011;11973;52.098;7.582;2023-12-14T08:41:47;16.10;;;14.63;;
23590;SDS011;11973;52.098;7.582;2023-12-14T08:44:16;18.40;;;16.70;;
23590;SDS011;11973;52.098;7.582;2023-12-14T08:46:43;20.77;;;18.02;;
23590;SDS011;11973;52.098;7.582;2023-12-14T08:49:10;19.70;;;17.70;;
23590;SDS011;11973;52.098;7.582;2023-12-14T08:51:37;19.95;;;17.85;;
23590;SDS011;11973;52.098;7.582;2023-12-14T08:54:03;20.17;;;17.95;;
23590;SDS011;11973;52.098;7.582;2023-12-14T08:56:29;19.27;;;17.38;;
23590;SDS011;11973;52.098;7.582;2023-12-14T08:58:55;20.58;;;18.48;;
23590;SDS011;11973;52.098;7.582;2023-12-14T09:01:22;18.80;;;16.95;;
23590;SDS011;11973;52.098;7.582;2023-12-14T09:03:48;18.80;;;17.00;;
23590;SDS011;11973;52.098;7.582;2023-12-14T09:06:15;18.83;;;16.92;;
23590;SDS011;11973;52.098;7.582;2023-12-14T09:08:42;18.73;;;16.92;;
23590;SDS011;11973;52.098;7.582;2023-12-14T09:11:11;18.65;;;16.80;;
23590;SDS011;11973;52.098;7.582;2023-12-14T09:13:37;19.17;;;17.27;;
23590;SDS011;11973;52.098;7.582;2023-12-14T09:16:03;18.40;;;16.70;;
23590;SDS011;11973;52.098;7.582;2023-12-14T09:18:30;19.00;;;17.10;;
23590;SDS011;11973;52.098;7.582;2023-12-14T09:20:55;19.85;;;17.85;;
23590;SDS011;11973;52.098;7.582;2023-12-14T09:23:21;18.67;;;16.85;;
23590;SDS011;11973;52.098;7.582;2023-12-14T09:25:47;19.23;;;17.33;;
23590;SDS011;11973;52.098;7.582;2023-12-14T09:28:13;18.83;;;17.00;;
23590;SDS011;11973;52.098;7.582;2023-12-14T09:30:39;19.55;;;17.65;;
23590;SDS011;11973;52.098;7.582;2023-12-14T09:33:05;19.25;;;17.45;;
23590;SDS011;11973;52.098;7.582;2023-12-14T09:35:33;18.98;;;17.05;;
23590;SDS011;11973;52.098;7.582;2023-12-14T09:38:02;18.15;;;16.45;;
23590;SDS011;11973;52.098;7.582;2023-12-14T09:40:28;18.33;;;16.52;;
23590;SDS011;11973;52.098;7.582;2023-12-14T09:42:54;17.65;;;15.88;;
23590;SDS011;11973;52.098;7.582;2023-12-14T09:45:21;17.33;;;15.70;;
23590;SDS011;11973;52.098;7.582;2023-12-14T09:47:52;17.65;;;16.05;;
23590;SDS011;11973;52.098;7.582;2023-12-14T09:50:19;17.77;;;16.17;;
23590;SDS011;11973;52.098;7.582;2023-12-14T09:52:46;17.20;;;15.57;;
23590;SDS011;11973;52.098;7.582;2023-12-14T09:55:14;17.20;;;15.60;;
23590;SDS011;11973;52.098;7.582;2023-12-14T09:57:40;17.73;;;16.17;;
23590;SDS011;11973;52.098;7.582;2023-12-14T10:00:06;16.65;;;15.23;;
23590;SDS011;11973;52.098;7.582;2023-12-14T10:02:37;17.73;;;15.93;;
23590;SDS011;11973;52.098;7.582;2023-12-14T10:05:05;16.90;;;15.43;;
23590;SDS011;11973;52.098;7.582;2023-12-14T10:07:40;17.13;;;15.63;;
23590;SDS011;11973;52.098;7.582;2023-12-14T10:10:12;17.10;;;15.40;;
23590;SDS011;11973;52.098;7.582;2023-12-14T10:12:51;18.30;;;16.60;;
23590;SDS011;11973;52.098;7.582;2023-12-14T10:15:21;17.52;;;15.85;;
23590;SDS011;11973;52.098;7.582;2023-12-14T10:17:52;17.17;;;15.50;;
23590;SDS011;11973;52.098;7.582;2023-12-14T10:20:22;17.20;;;15.70;;
23590;SDS011;11973;52.098;7.582;2023-12-14T10:22:49;16.35;;;14.95;;
23590;SDS011;11973;52.098;7.582;2023-12-14T10:25:15;16.52;;;15.13;;
23590;SDS011;11973;52.098;7.582;2023-12-14T10:27:45;16.77;;;15.15;;
23590;SDS011;11973;52.098;7.582;2023-12-14T10:30:12;16.25;;;14.85;;
23590;SDS011;11973;52.098;7.582;2023-12-14T10:32:38;16.05;;;14.65;;
23590;SDS011;11973;52.098;7.582;2023-12-14T10:35:06;16.77;;;15.27;;
23590;SDS011;11973;52.098;7.582;2023-12-14T10:37:32;16.35;;;14.85;;
23590;SDS011;11973;52.098;7.582;2023-12-14T10:40:00;16.08;;;14.68;;
23590;SDS011;11973;52.098;7.582;2023-12-14T10:42:30;16.13;;;14.75;;
23590;SDS011;11973;52.098;7.582;2023-12-14T10:45:00;15.02;;;13.73;;
23590;SDS011;11973;52.098;7.582;2023-12-14T10:47:28;14.68;;;13.57;;
23590;SDS011;11973;52.098;7.582;2023-12-14T10:49:54;14.50;;;13.40;;
23590;SDS011;11973;52.098;7.582;2023-12-14T10:52:22;14.73;;;13.63;;
23590;SDS011;11973;52.098;7.582;2023-12-14T10:54:53;14.57;;;13.30;;
23590;SDS011;11973;52.098;7.582;2023-12-14T10:57:25;14.20;;;13.18;;
23590;SDS011;11973;52.098;7.582;2023-12-14T10:59:57;14.80;;;13.55;;
23590;SDS011;11973;52.098;7.582;2023-12-14T11:02:27;15.23;;;14.02;;
23590;SDS011;11973;52.098;7.582;2023-12-14T11:05:02;14.77;;;13.60;;
23590;SDS011;11973;52.098;7.582;2023-12-14T11:10:13;14.90;;;13.82;;
23590;SDS011;11973;52.098;7.582;2023-12-14T11:13:22;13.98;;;12.95;;
23590;SDS011;11973;52.098;7.582;2023-12-14T11:15:35;14.75;;;13.65;;
23590;SDS011;11973;52.098;7.582;2023-12-14T11:18:43;15.48;;;14.18;;
23590;SDS011;11973;52.098;7.582;2023-12-14T11:20:57;15.27;;;13.98;;
23590;SDS011;11973;52.098;7.582;2023-12-14T11:25:53;16.05;;;14.75;;
23590;SDS011;11973;52.098;7.582;2023-12-14T11:28:21;15.93;;;14.55;;
23590;SDS011;11973;52.098;7.582;2023-12-14T11:30:47;16.02;;;14.63;;
23590;SDS011;11973;52.098;7.582;2023-12-14T11:33:13;15.43;;;14.13;;
23590;SDS011;11973;52.098;7.582;2023-12-14T11:35:40;14.80;;;13.70;;
23590;SDS011;11973;52.098;7.582;2023-12-14T11:38:06;14.80;;;13.60;;
23590;SDS011;11973;52.098;7.582;2023-12-14T11:40:38;14.75;;;13.48;;
23590;SDS011;11973;52.098;7.582;2023-12-14T11:43:07;14.10;;;12.82;;
23590;SDS011;11973;52.098;7.582;2023-12-14T11:45:38;15.50;;;14.05;;
23590;SDS011;11973;52.098;7.582;2023-12-14T11:48:06;14.90;;;13.60;;
23590;SDS011;11973;52.098;7.582;2023-12-14T11:50:32;14.63;;;13.48;;
23590;SDS011;11973;52.098;7.582;2023-12-14T11:53:02;14.85;;;13.75;;
23590;SDS011;11973;52.098;7.582;2023-12-14T11:55:32;15.35;;;14.05;;
23590;SDS011;11973;52.098;7.582;2023-12-14T11:58:00;15.48;;;14.18;;
23590;SDS011;11973;52.098;7.582;2023-12-14T12:00:26;16.10;;;14.70;;
23590;SDS011;11973;52.098;7.582;2023-12-14T12:03:13;15.50;;;14.20;;
23590;SDS011;11973;52.098;7.582;2023-12-14T12:05:41;16.73;;;15.23;;
23590;SDS011;11973;52.098;7.582;2023-12-14T12:08:10;15.60;;;14.35;;
23590;SDS011;11973;52.098;7.582;2023-12-14T12:10:36;15.05;;;13.95;;
23590;SDS011;11973;52.098;7.582;2023-12-14T12:13:03;15.77;;;14.48;;
23590;SDS011;11973;52.098;7.582;2023-12-14T12:15:36;14.73;;;13.52;;
23590;SDS011;11973;52.098;7.582;2023-12-14T12:18:05;15.15;;;13.88;;
23590;SDS011;11973;52.098;7.582;2023-12-14T12:20:33;15.25;;;14.05;;
23590;SDS011;11973;52.098;7.582;2023-12-14T12:23:00;14.60;;;13.40;;
23590;SDS011;11973;52.098;7.582;2023-12-14T12:25:26;14.40;;;13.30;;
23590;SDS011;11973;52.098;7.582;2023-12-14T12:27:55;15.10;;;13.85;;
23590;SDS011;11973;52.098;7.582;2023-12-14T12:30:21;15.38;;;13.88;;
23590;SDS011;11973;52.098;7.582;2023-12-14T12:32:48;15.77;;;14.50;;
23590;SDS011;11973;52.098;7.582;2023-12-14T12:35:17;15.00;;;13.85;;
23590;SDS011;11973;52.098;7.582;2023-12-14T12:37:43;15.48;;;13.98;;
23590;SDS011;11973;52.098;7.582;2023-12-14T12:40:09;15.18;;;13.88;;
23590;SDS011;11973;52.098;7.582;2023-12-14T12:42:36;15.52;;;14.02;;
23590;SDS011;11973;52.098;7.582;2023-12-14T12:45:02;15.43;;;14.20;;
23590;SDS011;11973;52.098;7.582;2023-12-14T12:47:29;15.57;;;14.38;;
23590;SDS011;11973;52.098;7.582;2023-12-14T12:49:55;15.43;;;14.18;;
23590;SDS011;11973;52.098;7.582;2023-12-14T12:52:21;16.40;;;15.02;;
23590;SDS011;11973;52.098;7.582;2023-12-14T12:54:47;15.45;;;14.23;;
23590;SDS011;11973;52.098;7.582;2023-12-14T12:57:12;16.42;;;15.02;;
23590;SDS011;11973;52.098;7.582;2023-12-14T12:59:38;15.68;;;14.40;;
23590;SDS011;11973;52.098;7.582;2023-12-14T13:02:04;16.25;;;14.93;;
23590;SDS011;11973;52.098;7.582;2023-12-14T13:04:30;16.85;;;15.45;;
23590;SDS011;11973;52.098;7.582;2023-12-14T13:06:57;16.67;;;15.25;;
23590;SDS011;11973;52.098;7.582;2023-12-14T13:09:23;16.70;;;15.23;;
23590;SDS011;11973;52.098;7.582;2023-12-14T13:11:49;16.58;;;15.05;;
23590;SDS011;11973;52.098;7.582;2023-12-14T13:14:16;16.33;;;14.90;;
23590;SDS011;11973;52.098;7.582;2023-12-14T13:16:43;16.92;;;15.32;;
23590;SDS011;11973;52.098;7.582;2023-12-14T13:19:09;16.35;;;14.95;;
23590;SDS011;11973;52.098;7.582;2023-12-14T13:21:35;16.95;;;15.35;;
23590;SDS011;11973;52.098;7.582;2023-12-14T13:24:01;17.00;;;15.40;;
23590;SDS011;11973;52.098;7.582;2023-12-14T13:26:28;17.48;;;15.88;;
23590;SDS011;11973;52.098;7.582;2023-12-14T13:28:54;18.23;;;16.48;;
23590;SDS011;11973;52.098;7.582;2023-12-14T13:31:20;17.10;;;15.50;;
23590;SDS011;11973;52.098;7.582;2023-12-14T13:33:46;17.92;;;16.30;;
23590;SDS011;11973;52.098;7.582;2023-12-14T13:36:13;17.48;;;15.82;;
23590;SDS011;11973;52.098;7.582;2023-12-14T13:38:40;18.15;;;16.38;;
23590;SDS011;11973;52.098;7.582;2023-12-14T13:41:06;17.77;;;16.15;;
23590;SDS011;11973;52.098;7.582;2023-12-14T13:43:33;18.83;;;16.92;;
23590;SDS011;11973;52.098;7.582;2023-12-14T13:45:59;17.52;;;15.75;;
23590;SDS011;11973;52.098;7.582;2023-12-14T13:48:25;18.10;;;16.20;;
23590;SDS011;11973;52.098;7.582;2023-12-14T13:50:52;18.23;;;16.48;;
23590;SDS011;11973;52.098;7.582;2023-12-14T13:53:21;18.85;;;16.98;;
23590;SDS011;11973;52.098;7.582;2023-12-14T13:55:47;18.00;;;16.30;;
23590;SDS011;11973;52.098;7.582;2023-12-14T13:58:16;17.33;;;15.52;;
23590;SDS011;11973;52.098;7.582;2023-12-14T14:00:45;19.50;;;16.27;;
23590;SDS011;11973;52.098;7.582;2023-12-14T14:03:11;17.83;;;15.93;;
23590;SDS011;11973;52.098;7.582;2023-12-14T14:05:38;16.60;;;15.00;;
23590;SDS011;11973;52.098;7.582;2023-12-14T14:08:04;17.60;;;15.90;;
23590;SDS011;11973;52.098;7.582;2023-12-14T14:10:30;17.98;;;16.27;;
23590;SDS011;11973;52.098;7.582;2023-12-14T14:12:56;18.38;;;16.58;;
23590;SDS011;11973;52.098;7.582;2023-12-14T14:15:21;18.25;;;16.52;;
23590;SDS011;11973;52.098;7.582;2023-12-14T14:17:47;18.45;;;16.67;;
23590;SDS011;11973;52.098;7.582;2023-12-14T14:20:18;18.48;;;16.58;;
23590;SDS011;11973;52.098;7.582;2023-12-14T14:22:44;18.67;;;16.88;;
23590;SDS011;11973;52.098;7.582;2023-12-14T14:25:10;18.15;;;16.35;;
23590;SDS011;11973;52.098;7.582;2023-12-14T14:27:36;19.20;;;17.27;;
23590;SDS011;11973;52.098;7.582;2023-12-14T14:30:03;19.52;;;17.35;;
23590;SDS011;11973;52.098;7.582;2023-12-14T14:32:29;18.98;;;17.02;;
23590;SDS011;11973;52.098;7.582;2023-12-14T14:34:57;18.42;;;16.63;;
23590;SDS011;11973;52.098;7.582;2023-12-14T14:37:24;19.15;;;17.20;;
23590;SDS011;11973;52.098;7.582;2023-12-14T14:39:50;18.92;;;17.02;;
23590;SDS011;11973;52.098;7.582;2023-12-14T14:42:16;18.35;;;16.63;;
23590;SDS011;11973;52.098;7.582;2023-12-14T14:44:42;19.20;;;17.30;;
23590;SDS011;11973;52.098;7.582;2023-12-14T14:47:07;19.27;;;17.35;;
23590;SDS011;11973;52.098;7.582;2023-12-14T14:49:34;18.70;;;16.80;;
23590;SDS011;11973;52.098;7.582;2023-12-14T14:52:00;18.10;;;16.20;;
23590;SDS011;11973;52.098;7.582;2023-12-14T14:54:25;18.17;;;16.35;;
23590;SDS011;11973;52.098;7.582;2023-12-14T14:56:51;18.30;;;16.50;;
23590;SDS011;11973;52.098;7.582;2023-12-14T14:59:17;19.50;;;17.42;;
23590;SDS011;11973;52.098;7.582;2023-12-14T15:01:43;19.17;;;17.08;;
23590;SDS011;11973;52.098;7.582;2023-12-14T15:04:10;20.15;;;17.33;;
23590;SDS011;11973;52.098;7.582;2023-12-14T15:06:36;18.63;;;16.73;;
23590;SDS011;11973;52.098;7.582;2023-12-14T15:09:02;17.75;;;16.05;;
23590;SDS011;11973;52.098;7.582;2023-12-14T15:11:30;19.30;;;17.30;;
23590;SDS011;11973;52.098;7.582;2023-12-14T15:13:56;19.50;;;17.42;;
23590;SDS011;11973;52.098;7.582;2023-12-14T15:16:22;19.77;;;17.27;;
23590;SDS011;11973;52.098;7.582;2023-12-14T15:18:51;21.85;;;17.73;;
23590;SDS011;11973;52.098;7.582;2023-12-14T15:21:17;19.48;;;17.38;;
23590;SDS011;11973;52.098;7.582;2023-12-14T15:23:43;18.67;;;16.85;;
23590;SDS011;11973;52.098;7.582;2023-12-14T15:26:11;19.70;;;17.05;;
23590;SDS011;11973;52.098;7.582;2023-12-14T15:28:38;19.02;;;17.13;;
23590;SDS011;11973;52.098;7.582;2023-12-14T15:31:04;19.98;;;17.80;;
23590;SDS011;11973;52.098;7.582;2023-12-14T15:33:30;19.88;;;17.77;;
23590;SDS011;11973;52.098;7.582;2023-12-14T15:35:55;20.23;;;18.00;;
23590;SDS011;11973;52.098;7.582;2023-12-14T15:38:21;20.00;;;17.33;;
23590;SDS011;11973;52.098;7.582;2023-12-14T15:40:47;21.08;;;17.77;;
23590;SDS011;11973;52.098;7.582;2023-12-14T15:43:13;20.42;;;18.13;;
23590;SDS011;11973;52.098;7.582;2023-12-14T15:45:39;18.83;;;16.80;;
23590;SDS011;11973;52.098;7.582;2023-12-14T15:48:05;20.25;;;17.55;;
23590;SDS011;11973;52.098;7.582;2023-12-14T15:50:31;19.73;;;17.20;;
23590;SDS011;11973;52.098;7.582;2023-12-14T15:52:57;22.15;;;17.55;;
23590;SDS011;11973;52.098;7.582;2023-12-14T15:55:23;19.75;;;16.90;;
23590;SDS011;11973;52.098;7.582;2023-12-14T15:57:53;19.38;;;16.95;;
23590;SDS011;11973;52.098;7.582;2023-12-14T16:00:19;22.30;;;16.80;;
23590;SDS011;11973;52.098;7.582;2023-12-14T16:02:45;21.10;;;18.02;;
23590;SDS011;11973;52.098;7.582;2023-12-14T16:05:10;20.00;;;15.95;;
23590;SDS011;11973;52.098;7.582;2023-12-14T16:07:36;19.50;;;16.65;;
23590;SDS011;11973;52.098;7.582;2023-12-14T16:10:02;21.92;;;18.02;;
23590;SDS011;11973;52.098;7.582;2023-12-14T16:12:29;18.15;;;16.25;;
23590;SDS011;11973;52.098;7.582;2023-12-14T16:14:55;20.17;;;16.88;;
23590;SDS011;11973;52.098;7.582;2023-12-14T16:17:25;19.63;;;16.40;;
23590;SDS011;11973;52.098;7.582;2023-12-14T16:19:53;19.90;;;16.92;;
23590;SDS011;11973;52.098;7.582;2023-12-14T16:22:19;20.15;;;17.13;;
23590;SDS011;11973;52.098;7.582;2023-12-14T16:24:45;20.50;;;16.60;;
23590;SDS011;11973;52.098;7.582;2023-12-14T16:27:10;21.08;;;16.75;;
23590;SDS011;11973;52.098;7.582;2023-12-14T16:29:36;18.85;;;15.60;;
23590;SDS011;11973;52.098;7.582;2023-12-14T16:32:03;19.33;;;16.27;;
23590;SDS011;11973;52.098;7.582;2023-12-14T16:34:32;20.52;;;16.52;;
23590;SDS011;11973;52.098;7.582;2023-12-14T16:36:58;20.33;;;16.83;;
23590;SDS011;11973;52.098;7.582;2023-12-14T16:39:24;20.42;;;16.98;;
23590;SDS011;11973;52.098;7.582;2023-12-14T16:41:52;18.52;;;16.27;;
23590;SDS011;11973;52.098;7.582;2023-12-14T16:44:18;20.67;;;16.33;;
23590;SDS011;11973;52.098;7.582;2023-12-14T16:46:43;20.83;;;17.52;;
23590;SDS011;11973;52.098;7.582;2023-12-14T16:49:09;22.08;;;18.02;;
23590;SDS011;11973;52.098;7.582;2023-12-14T16:51:35;22.85;;;17.90;;
23590;SDS011;11973;52.098;7.582;2023-12-14T16:54:01;22.98;;;18.67;;
23590;SDS011;11973;52.098;7.582;2023-12-14T16:56:30;24.08;;;18.95;;
23590;SDS011;11973;52.098;7.582;2023-12-14T16:58:57;21.58;;;17.92;;
23590;SDS011;11973;52.098;7.582;2023-12-14T17:01:23;20.88;;;17.75;;
23590;SDS011;11973;52.098;7.582;2023-12-14T17:03:49;23.63;;;17.90;;
23590;SDS011;11973;52.098;7.582;2023-12-14T17:06:19;22.45;;;17.63;;
23590;SDS011;11973;52.098;7.582;2023-12-14T17:08:45;22.55;;;17.88;;
23590;SDS011;11973;52.098;7.582;2023-12-14T17:11:11;23.85;;;18.60;;
23590;SDS011;11973;52.098;7.582;2023-12-14T17:13:38;22.83;;;18.70;;
23590;SDS011;11973;52.098;7.582;2023-12-14T17:16:13;25.73;;;18.80;;
23590;SDS011;11973;52.098;7.582;2023-12-14T17:18:41;24.27;;;18.23;;
23590;SDS011;11973;52.098;7.582;2023-12-14T17:21:18;23.17;;;18.98;;
23590;SDS011;11973;52.098;7.582;2023-12-14T17:23:48;24.73;;;19.63;;
23590;SDS011;11973;52.098;7.582;2023-12-14T17:26:15;25.10;;;18.10;;
23590;SDS011;11973;52.098;7.582;2023-12-14T17:28:45;23.85;;;18.70;;
23590;SDS011;11973;52.098;7.582;2023-12-14T17:31:13;26.20;;;18.73;;
23590;SDS011;11973;52.098;7.582;2023-12-14T17:33:39;22.42;;;19.05;;
23590;SDS011;11973;52.098;7.582;2023-12-14T17:36:05;24.10;;;19.30;;
23590;SDS011;11973;52.098;7.582;2023-12-14T17:38:31;25.88;;;19.42;;
23590;SDS011;11973;52.098;7.582;2023-12-14T17:40:57;23.67;;;18.75;;
23590;SDS011;11973;52.098;7.582;2023-12-14T17:43:27;23.90;;;19.27;;
23590;SDS011;11973;52.098;7.582;2023-12-14T17:45:53;27.25;;;20.10;;
23590;SDS011;11973;52.098;7.582;2023-12-14T17:48:19;26.35;;;21.27;;
23590;SDS011;11973;52.098;7.582;2023-12-14T17:50:44;27.17;;;20.45;;
23590;SDS011;11973;52.098;7.582;2023-12-14T17:53:10;26.98;;;21.05;;
23590;SDS011;11973;52.098;7.582;2023-12-14T17:55:36;25.13;;;19.08;;
23590;SDS011;11973;52.098;7.582;2023-12-14T17:58:01;29.13;;;19.58;;
23590;SDS011;11973;52.098;7.582;2023-12-14T18:00:27;25.20;;;19.42;;
23590;SDS011;11973;52.098;7.582;2023-12-14T18:02:53;28.73;;;19.77;;
23590;SDS011;11973;52.098;7.582;2023-12-14T18:05:19;25.73;;;19.80;;
23590;SDS011;11973;52.098;7.582;2023-12-14T18:07:45;24.95;;;19.20;;
23590;SDS011;11973;52.098;7.582;2023-12-14T18:10:11;25.48;;;19.63;;
23590;SDS011;11973;52.098;7.582;2023-12-14T18:12:39;24.88;;;19.13;;
23590;SDS011;11973;52.098;7.582;2023-12-14T18:15:05;26.77;;;19.85;;
23590;SDS011;11973;52.098;7.582;2023-12-14T18:17:31;24.60;;;19.60;;
23590;SDS011;11973;52.098;7.582;2023-12-14T18:19:56;25.83;;;18.90;;
23590;SDS011;11973;52.098;7.582;2023-12-14T18:22:22;76.10;;;48.00;;
23590;SDS011;11973;52.098;7.582;2023-12-14T18:24:48;29.73;;;21.73;;
23590;SDS011;11973;52.098;7.582;2023-12-14T18:27:14;23.70;;;18.88;;
23590;SDS011;11973;52.098;7.582;2023-12-14T18:29:40;32.78;;;24.15;;
23590;SDS011;11973;52.098;7.582;2023-12-14T18:32:06;33.15;;;23.23;;
23590;SDS011;11973;52.098;7.582;2023-12-14T18:34:34;25.40;;;18.75;;
23590;SDS011;11973;52.098;7.582;2023-12-14T18:37:03;27.02;;;18.88;;
23590;SDS011;11973;52.098;7.582;2023-12-14T18:39:29;24.48;;;18.67;;
23590;SDS011;11973;52.098;7.582;2023-12-14T18:41:55;27.25;;;19.20;;
23590;SDS011;11973;52.098;7.582;2023-12-14T18:44:21;25.73;;;18.98;;
23590;SDS011;11973;52.098;7.582;2023-12-14T18:46:47;24.30;;;18.45;;
23590;SDS011;11973;52.098;7.582;2023-12-14T18:49:13;25.23;;;18.63;;
23590;SDS011;11973;52.098;7.582;2023-12-14T18:51:38;25.38;;;18.17;;
23590;SDS011;11973;52.098;7.582;2023-12-14T18:54:04;26.60;;;18.00;;
23590;SDS011;11973;52.098;7.582;2023-12-14T18:56:30;26.58;;;18.95;;
23590;SDS011;11973;52.098;7.582;2023-12-14T18:58:56;28.33;;;19.60;;
23590;SDS011;11973;52.098;7.582;2023-12-14T19:01:22;28.77;;;19.40;;
23590;SDS011;11973;52.098;7.582;2023-12-14T19:03:48;29.35;;;19.90;;
23590;SDS011;11973;52.098;7.582;2023-12-14T19:06:14;30.80;;;20.17;;
23590;SDS011;11973;52.098;7.582;2023-12-14T19:08:42;29.23;;;19.67;;
23590;SDS011;11973;52.098;7.582;2023-12-14T19:11:17;26.70;;;19.20;;